Terminal Aerodrome Forecast
Issued by NWS

Home | Current Version | Previous Version | Text Only | Print | Product List | Glossary Off
Versions: 1 2 3 4 5 6 7 8 9 10 11 12 13 14 15 16

000
FTUS43 KICT 011459 AAB
TAFCNU
TAF AMD
KCNU 011459Z 0115/0212 30011KT P6SM SCT020
      TEMPO 0115/0117 BKN020
     FM011700 30012KT P6SM BKN035
     FM020000 35009KT P6SM OVC050
     FM020300 36007KT P6SM OVC030
     FM020700 35007KT P6SM SCT015 OVC020=

USA.gov is the U.S. government's official web portal to all federal, state and local government web resources and services.